Time;durP1;ratioP1;P1;durP2;ratioP2;P2;SDS_P1;SDS_P2;PMS_P1;PMS_P2;Temp;Humidity;BMP_temperature;BMP_pressure;BME280_temperature;BME280_humidity;BME280_pressure;Samples;Min_cycle;Max_cycle;Signal;HPM_P1;HPM_P2
2022/08/17 00:02:15;;;;;;;6.83;5.40;;;24.00;99.90;;;;;;5052933;28;20906;-79
2022/08/17 00:04:44;;;;;;;6.63;4.80;;;24.00;99.90;;;;;;5059942;28;20454;-79
2022/08/17 00:07:11;;;;;;;6.67;4.63;;;24.00;99.90;;;;;;5072650;28;20873;-79
2022/08/17 00:09:37;;;;;;;8.93;4.90;;;23.90;99.90;;;;;;5072402;28;20447;-78
2022/08/17 00:12:05;;;;;;;7.00;4.90;;;23.90;99.90;;;;;;5073120;28;20561;-78
2022/08/17 00:14:32;;;;;;;5.43;4.53;;;23.80;99.90;;;;;;5070162;28;20538;-78
2022/08/17 00:16:59;;;;;;;8.13;5.37;;;23.80;99.90;;;;;;5052787;28;20451;-79
2022/08/17 00:19:27;;;;;;;6.30;4.80;;;23.80;99.90;;;;;;5052574;28;20479;-78
2022/08/17 00:21:59;;;;;;;5.90;4.70;;;23.70;99.90;;;;;;5056965;28;20849;-78
2022/08/17 00:24:28;;;;;;;6.43;4.90;;;23.70;99.90;;;;;;5070211;28;20796;-79
2022/08/17 00:26:55;;;;;;;6.30;4.93;;;23.60;99.90;;;;;;5052469;28;20455;-80
2022/08/17 00:29:21;;;;;;;6.37;4.53;;;23.60;99.90;;;;;;5052328;28;20960;-78
2022/08/17 00:31:49;;;;;;;7.90;4.77;;;23.50;99.90;;;;;;5055818;28;20913;-78
2022/08/17 00:34:16;;;;;;;6.60;5.50;;;23.50;99.90;;;;;;5055916;28;20570;-77
2022/08/17 00:36:43;;;;;;;6.07;5.47;;;23.50;99.90;;;;;;5071187;28;20958;-78
2022/08/17 00:39:11;;;;;;;5.57;4.90;;;23.40;99.90;;;;;;5075767;28;20561;-78
2022/08/17 00:41:38;;;;;;;8.63;5.90;;;23.40;99.90;;;;;;5074812;28;20455;-78
2022/08/17 00:44:06;;;;;;;5.97;5.33;;;23.30;99.90;;;;;;5075510;28;20496;-78
2022/08/17 00:46:38;;;;;;;7.00;5.87;;;23.30;99.90;;;;;;5058603;28;20444;-77
2022/08/17 00:49:05;;;;;;;6.40;5.50;;;23.30;99.90;;;;;;5056544;28;20487;-78
2022/08/17 00:51:38;;;;;;;6.67;5.27;;;23.20;99.90;;;;;;5056360;28;20556;-79
2022/08/17 00:54:10;;;;;;;7.00;5.47;;;23.20;99.90;;;;;;5056647;28;20464;-79
2022/08/17 00:56:44;;;;;;;7.37;5.73;;;23.10;99.90;;;;;;5073742;28;20463;-78
2022/08/17 00:59:13;;;;;;;6.77;5.27;;;23.10;99.90;;;;;;5058600;28;20538;-79
2022/08/17 01:01:40;;;;;;;6.77;5.70;;;23.00;99.90;;;;;;5057257;28;20527;-79
2022/08/17 01:04:08;;;;;;;8.07;6.20;;;23.00;99.90;;;;;;5056401;28;20446;-79
2022/08/17 01:06:35;;;;;;;5.93;5.33;;;23.00;99.90;;;;;;5074871;28;20892;-79
2022/08/17 01:09:03;;;;;;;6.50;5.60;;;22.90;99.90;;;;;;5076022;28;20455;-78
2022/08/17 01:11:31;;;;;;;6.30;5.50;;;22.80;99.90;;;;;;5077231;28;20462;-79
2022/08/17 01:14:00;;;;;;;6.90;6.20;;;22.80;99.90;;;;;;5076110;28;20483;-80
2022/08/17 01:16:30;;;;;;;6.87;6.03;;;22.80;99.90;;;;;;5060961;28;20521;-78
2022/08/17 01:19:00;;;;;;;7.47;6.33;;;22.80;99.90;;;;;;5057436;28;20475;-80
2022/08/17 01:21:33;;;;;;;8.10;6.50;;;22.70;99.90;;;;;;5056380;28;21007;-79
2022/08/17 01:24:02;;;;;;;6.90;6.20;;;22.60;99.90;;;;;;5056319;28;20555;-78
2022/08/17 01:26:32;;;;;;;8.20;6.93;;;22.60;99.90;;;;;;5072559;28;20486;-79
2022/08/17 01:29:01;;;;;;;7.40;6.70;;;22.60;99.90;;;;;;5075169;28;20935;-79
2022/08/17 01:31:32;;;;;;;6.87;6.27;;;22.60;99.90;;;;;;5064688;28;20544;-80
2022/08/17 01:34:02;;;;;;;8.20;7.30;;;22.60;99.90;;;;;;5063983;28;20471;-80
2022/08/17 01:36:29;;;;;;;8.53;7.70;;;22.50;99.90;;;;;;5072150;28;20538;-79
2022/08/17 01:38:56;;;;;;;10.33;7.47;;;22.50;99.90;;;;;;5074609;28;20901;-79
2022/08/17 01:41:25;;;;;;;7.67;6.97;;;22.40;99.90;;;;;;5056535;28;20677;-79
2022/08/17 01:43:55;;;;;;;8.47;7.53;;;22.30;99.90;;;;;;5054546;28;20535;-79
2022/08/17 01:46:26;;;;;;;11.33;6.83;;;22.30;99.90;;;;;;5056552;28;20455;-79
2022/08/17 01:48:54;;;;;;;9.70;7.70;;;22.20;99.90;;;;;;5072636;28;20449;-78
2022/08/17 01:51:21;;;;;;;8.20;7.40;;;22.20;99.90;;;;;;5072601;28;20534;-79
2022/08/17 01:53:51;;;;;;;9.87;8.93;;;22.20;99.90;;;;;;5090612;28;20498;-79
2022/08/17 01:56:22;;;;;;;7.93;6.70;;;22.10;99.90;;;;;;5076879;28;20485;-78
2022/08/17 01:58:51;;;;;;;10.63;7.60;;;22.10;99.90;;;;;;5060260;28;20492;-78
2022/08/17 02:01:20;;;;;;;8.83;7.40;;;22.10;99.90;;;;;;5055862;28;20450;-78
2022/08/17 02:03:47;;;;;;;10.37;7.40;;;22.10;99.90;;;;;;5054628;28;20471;-79
2022/08/17 02:06:13;;;;;;;11.43;7.40;;;22.00;99.90;;;;;;5068697;28;20535;-79
2022/08/17 02:08:40;;;;;;;9.00;7.27;;;22.00;99.90;;;;;;5075399;28;20538;-78
2022/08/17 02:11:12;;;;;;;8.40;7.40;;;22.00;99.90;;;;;;5105529;22;20529;-79
2022/08/17 02:13:39;;;;;;;8.70;7.73;;;21.90;99.90;;;;;;5068307;28;20482;-79
2022/08/17 02:16:07;;;;;;;7.90;7.10;;;21.80;99.90;;;;;;5068762;28;20527;-78
2022/08/17 02:18:34;;;;;;;9.00;7.43;;;21.80;99.90;;;;;;5060603;28;20564;-79
2022/08/17 02:21:01;;;;;;;10.63;7.77;;;21.70;99.90;;;;;;5075914;28;20475;-81
2022/08/17 02:23:32;;;;;;;8.80;7.80;;;21.70;99.90;;;;;;5059502;28;20527;-78
2022/08/17 02:26:00;;;;;;;10.03;8.17;;;21.70;99.90;;;;;;5075997;28;20950;-77
2022/08/17 02:28:27;;;;;;;8.43;7.63;;;21.60;99.90;;;;;;5064061;28;20554;-79
2022/08/17 02:30:55;;;;;;;10.63;8.23;;;21.60;99.90;;;;;;5068227;28;20498;-80
2022/08/17 02:33:24;;;;;;;9.50;8.37;;;21.50;99.90;;;;;;5074293;28;20509;-79
2022/08/17 02:35:51;;;;;;;7.80;7.00;;;21.50;99.90;;;;;;5075161;28;20510;-81
2022/08/17 02:38:17;;;;;;;10.47;8.67;;;21.50;99.90;;;;;;5075347;28;20455;-79
2022/08/17 02:40:44;;;;;;;8.10;7.00;;;21.50;99.90;;;;;;5075720;28;20475;-81
2022/08/17 02:43:12;;;;;;;9.57;8.53;;;21.50;99.90;;;;;;5074020;28;20451;-78
2022/08/17 02:45:39;;;;;;;8.43;7.53;;;21.50;99.90;;;;;;5074599;28;20901;-77
2022/08/17 02:48:06;;;;;;;9.63;8.73;;;21.40;99.90;;;;;;5075340;28;20455;-78
2022/08/17 02:50:34;;;;;;;9.30;8.40;;;21.40;99.90;;;;;;5074773;28;20565;-78
2022/08/17 02:53:01;;;;;;;10.27;8.83;;;21.40;99.90;;;;;;5074422;28;20462;-81
2022/08/17 02:55:31;;;;;;;9.50;8.50;;;21.40;99.90;;;;;;5074996;28;20506;-77
2022/08/17 02:57:58;;;;;;;9.90;7.80;;;21.40;99.90;;;;;;5075053;28;20486;-78
2022/08/17 03:00:28;;;;;;;10.77;8.93;;;21.30;99.90;;;;;;5074981;28;20513;-78
2022/08/17 03:02:56;;;;;;;10.10;8.60;;;21.40;99.90;;;;;;5075245;28;20829;-79
2022/08/17 03:05:26;;;;;;;8.80;7.93;;;21.30;99.90;;;;;;5075543;28;20541;-80
2022/08/17 03:07:56;;;;;;;9.03;8.13;;;21.30;99.90;;;;;;5075023;28;20522;-78
2022/08/17 03:10:24;;;;;;;10.73;9.53;;;21.30;99.90;;;;;;5074651;28;20506;-79
2022/08/17 03:12:52;;;;;;;10.80;9.57;;;21.30;99.90;;;;;;5074525;28;20455;-78
2022/08/17 03:15:23;;;;;;;9.33;8.10;;;21.30;99.90;;;;;;5075973;28;20891;-80
2022/08/17 03:17:51;;;;;;;9.40;8.50;;;21.20;99.90;;;;;;5076611;28;20912;-78
2022/08/17 03:20:19;;;;;;;9.60;8.37;;;21.20;99.90;;;;;;5075719;28;20498;-77
2022/08/17 03:22:48;;;;;;;9.40;8.40;;;21.20;99.90;;;;;;5075581;28;20955;-80
2022/08/17 03:25:18;;;;;;;9.97;8.47;;;21.20;99.90;;;;;;5059636;28;20527;-81
2022/08/17 03:27:45;;;;;;;12.50;8.93;;;21.20;99.90;;;;;;5057998;28;20432;-78
2022/08/17 03:30:13;;;;;;;9.73;8.57;;;21.10;99.90;;;;;;5075924;28;20471;-79
2022/08/17 03:32:41;;;;;;;11.87;8.83;;;21.10;99.90;;;;;;5076277;28;20447;-79
2022/08/17 03:35:09;;;;;;;11.27;9.10;;;21.10;99.90;;;;;;5074520;28;20570;-82
2022/08/17 03:37:36;;;;;;;10.20;9.10;;;21.10;99.90;;;;;;5074668;28;20541;-80
2022/08/17 03:40:06;;;;;;;9.77;8.70;;;21.10;99.90;;;;;;5075901;28;20841;-81
2022/08/17 03:42:36;;;;;;;10.23;8.17;;;21.10;99.90;;;;;;5075732;28;20809;-81
2022/08/17 03:45:05;;;;;;;11.57;8.90;;;21.00;99.90;;;;;;5076431;28;20470;-81
2022/08/17 03:58:45;;;;;;;9.73;8.33;;;21.00;99.90;;;;;;5074362;28;20845;-81
2022/08/17 04:01:13;;;;;;;11.10;8.60;;;21.00;99.90;;;;;;5074630;28;20466;-79
2022/08/17 04:03:40;;;;;;;8.93;8.07;;;21.00;99.90;;;;;;5073944;28;20438;-79
2022/08/17 04:06:07;;;;;;;10.00;8.37;;;21.00;99.90;;;;;;5073499;28;20538;-79
2022/08/17 04:08:34;;;;;;;9.70;8.50;;;21.00;99.90;;;;;;5074334;28;20485;-78
2022/08/17 04:11:01;;;;;;;8.77;7.87;;;21.00;99.90;;;;;;5063946;28;20561;-79
2022/08/17 04:13:28;;;;;;;10.27;7.77;;;21.00;99.90;;;;;;5065423;28;20565;-79
2022/08/17 04:15:58;;;;;;;9.80;8.10;;;21.00;99.90;;;;;;5073772;28;20959;-77
2022/08/17 04:18:24;;;;;;;8.73;7.80;;;20.90;99.90;;;;;;5071468;28;21009;-79
2022/08/17 04:20:51;;;;;;;8.83;8.00;;;20.90;99.90;;;;;;5064116;28;20479;-78
2022/08/17 04:23:19;;;;;;;9.67;8.20;;;20.90;99.90;;;;;;5058126;28;20487;-77
2022/08/17 04:25:49;;;;;;;9.70;7.97;;;20.90;99.90;;;;;;5066034;28;20520;-77
2022/08/17 04:28:18;;;;;;;9.20;8.30;;;20.90;99.90;;;;;;5061878;28;21018;-78
2022/08/17 04:30:46;;;;;;;11.10;9.33;;;20.90;99.90;;;;;;5070770;28;20499;-79
2022/08/17 04:33:16;;;;;;;9.03;8.10;;;21.00;99.90;;;;;;5070321;28;20462;-77
2022/08/17 04:35:45;;;;;;;8.67;7.43;;;20.90;99.90;;;;;;5071784;28;20475;-77
2022/08/17 04:38:14;;;;;;;8.87;7.90;;;21.00;99.90;;;;;;5072653;28;21034;-80
2022/08/17 04:43:28;;;;;;;9.43;8.37;;;20.90;99.90;;;;;;5070746;28;20410;-78
2022/08/17 04:45:57;;;;;;;9.13;8.23;;;20.90;99.90;;;;;;5051365;28;20522;-78
2022/08/17 04:48:27;;;;;;;7.80;6.90;;;20.90;99.90;;;;;;5051747;28;20448;-78
2022/08/17 04:50:54;;;;;;;9.43;7.87;;;20.90;99.90;;;;;;5070155;28;20463;-77
2022/08/17 04:53:21;;;;;;;10.50;7.90;;;21.00;99.90;;;;;;5058623;28;20479;-78
2022/08/17 04:55:51;;;;;;;8.70;7.80;;;21.00;99.90;;;;;;5070192;28;20459;-77
2022/08/17 04:58:19;;;;;;;10.13;8.10;;;21.00;99.90;;;;;;5069956;28;20487;-77
2022/08/17 05:00:46;;;;;;;9.40;7.87;;;21.00;99.90;;;;;;5070738;28;21100;-78
2022/08/17 05:03:13;;;;;;;10.57;8.33;;;21.00;99.90;;;;;;5064775;28;20825;-77
2022/08/17 05:05:48;;;;;;;13.63;9.23;;;21.00;99.90;;;;;;5051035;28;20538;-78
2022/08/17 05:08:16;;;;;;;9.47;8.00;;;21.10;99.90;;;;;;5064702;28;20471;-77
2022/08/17 05:10:43;;;;;;;9.20;8.10;;;21.10;99.90;;;;;;5070341;28;20851;-78
2022/08/17 05:13:14;;;;;;;10.87;7.80;;;21.10;99.90;;;;;;5070127;28;20538;-79
2022/08/17 05:15:42;;;;;;;12.00;8.60;;;21.20;99.90;;;;;;5070660;28;20490;-78
2022/08/17 05:18:10;;;;;;;8.20;7.00;;;21.20;99.90;;;;;;5073784;28;20530;-78
2022/08/17 05:20:38;;;;;;;8.77;7.60;;;21.30;99.90;;;;;;5074034;28;20565;-78
2022/08/17 05:23:09;;;;;;;7.70;6.93;;;21.30;99.90;;;;;;5073808;28;20458;-79
2022/08/17 05:25:39;;;;;;;10.37;8.03;;;21.40;99.90;;;;;;5074713;28;20442;-77
2022/08/17 05:28:07;;;;;;;10.80;8.37;;;21.40;99.90;;;;;;5073972;28;20453;-77
2022/08/17 05:30:35;;;;;;;9.00;8.10;;;21.50;99.90;;;;;;5074553;28;20910;-78
2022/08/17 05:33:07;;;;;;;7.90;7.10;;;21.50;99.90;;;;;;5073252;28;20478;-77
2022/08/17 05:35:38;;;;;;;13.03;8.27;;;21.50;99.90;;;;;;5075428;28;20567;-76
2022/08/17 05:38:07;;;;;;;10.50;8.23;;;21.60;99.90;;;;;;5075310;28;20485;-79
2022/08/17 05:40:35;;;;;;;9.40;8.13;;;21.70;99.90;;;;;;5074986;28;20483;-78
2022/08/17 05:43:07;;;;;;;10.00;7.77;;;21.70;99.90;;;;;;5063492;28;20455;-78
2022/08/17 05:45:35;;;;;;;9.10;8.20;;;21.80;99.90;;;;;;5074523;28;20498;-77
2022/08/17 05:48:03;;;;;;;10.60;7.63;;;21.90;99.90;;;;;;5074712;28;20442;-78
2022/08/17 05:50:41;;;;;;;10.00;7.33;;;21.90;99.90;;;;;;5073656;28;20558;-77
2022/08/17 05:53:21;;;;;;;13.33;7.33;;;22.00;99.90;;;;;;5055199;28;20442;-79
2022/08/17 05:55:58;;;;;;;8.73;6.90;;;22.10;99.90;;;;;;5074225;28;20925;-80
2022/08/17 05:58:32;;;;;;;9.60;7.40;;;22.10;99.90;;;;;;5073141;28;20450;-78
2022/08/17 06:01:05;;;;;;;7.73;6.10;;;22.20;99.90;;;;;;5057914;28;20465;-77
2022/08/17 06:03:42;;;;;;;7.50;6.63;;;22.30;99.90;;;;;;5059715;28;20453;-80
2022/08/17 06:06:24;;;;;;;6.90;6.30;;;22.40;99.90;;;;;;5074657;28;20435;-75
2022/08/17 06:09:01;;;;;;;13.00;6.10;;;22.50;99.90;;;;;;5073354;28;20459;-75
2022/08/17 06:11:34;;;;;;;6.30;5.70;;;22.60;99.90;;;;;;5073895;28;20923;-75
2022/08/17 06:14:16;;;;;;;7.53;5.30;;;22.70;99.90;;;;;;5073070;28;20439;-77
2022/08/17 06:16:48;;;;;;;6.50;5.47;;;22.80;99.90;;;;;;5074095;28;20534;-77
2022/08/17 06:19:23;;;;;;;8.73;5.60;;;22.90;99.90;;;;;;5053784;28;20536;-78
2022/08/17 06:21:53;;;;;;;7.37;5.80;;;22.90;99.90;;;;;;5063786;28;20549;-77
2022/08/17 06:24:27;;;;;;;7.27;5.37;;;23.00;99.90;;;;;;5053231;28;20428;-78
2022/08/17 06:26:57;;;;;;;6.83;5.67;;;23.10;99.90;;;;;;5053632;28;20478;-78
2022/08/17 06:29:35;;;;;;;7.90;5.60;;;23.20;99.90;;;;;;5053201;28;20531;-76
2022/08/17 06:32:03;;;;;;;9.83;6.53;;;23.30;99.90;;;;;;5070253;28;20478;-78
2022/08/17 06:34:33;;;;;;;13.07;7.10;;;23.30;99.90;;;;;;5072123;28;20574;-78
2022/08/17 06:37:08;;;;;;;11.50;6.90;;;23.30;99.90;;;;;;5073473;28;20997;-77
2022/08/17 06:39:47;;;;;;;10.57;6.40;;;23.30;99.90;;;;;;5053148;28;20431;-75
2022/08/17 06:42:24;;;;;;;7.37;5.90;;;23.40;99.90;;;;;;5053981;28;20855;-80
2022/08/17 06:44:56;;;;;;;9.40;6.50;;;23.50;99.90;;;;;;5069226;28;20445;-79
2022/08/17 06:47:28;;;;;;;9.63;6.63;;;23.60;99.90;;;;;;5073339;28;20455;-77
2022/08/17 06:50:05;;;;;;;10.00;6.43;;;23.60;99.90;;;;;;5072554;28;20542;-78
2022/08/17 06:52:38;;;;;;;9.00;6.50;;;23.70;99.90;;;;;;5073268;28;20461;-79
2022/08/17 06:55:10;;;;;;;8.47;6.30;;;23.70;99.90;;;;;;5072120;28;20486;-79
2022/08/17 06:57:41;;;;;;;9.03;6.40;;;23.70;99.90;;;;;;5072927;28;20998;-78
2022/08/17 07:00:13;;;;;;;9.37;6.50;;;23.80;99.90;;;;;;5072788;28;20450;-78
2022/08/17 07:02:48;;;;;;;9.30;5.87;;;23.80;99.90;;;;;;5072362;28;20457;-79
2022/08/17 07:05:18;;;;;;;12.33;6.73;;;23.80;99.90;;;;;;5054085;28;20474;-79
2022/08/17 07:08:01;;;;;;;8.70;6.93;;;23.80;99.90;;;;;;5073071;28;20462;-78
2022/08/17 07:10:36;;;;;;;10.23;6.53;;;23.80;99.90;;;;;;5069492;28;21116;-79
2022/08/17 07:13:16;;;;;;;8.93;6.30;;;23.90;99.90;;;;;;5056611;28;20499;-80
2022/08/17 07:15:47;;;;;;;11.20;7.33;;;23.90;99.90;;;;;;5063987;28;21032;-79
2022/08/17 07:18:14;;;;;;;8.33;6.50;;;24.00;99.90;;;;;;5073762;28;21006;-77
2022/08/17 07:20:44;;;;;;;9.40;6.30;;;24.10;99.90;;;;;;5070899;28;21081;-77
2022/08/17 07:23:20;;;;;;;8.63;6.60;;;24.10;99.90;;;;;;5072335;28;20454;-79
2022/08/17 07:25:50;;;;;;;9.90;6.73;;;24.10;99.90;;;;;;5073117;28;20439;-79
2022/08/17 07:28:22;;;;;;;9.10;6.60;;;24.20;99.90;;;;;;5072747;28;21022;-76
2022/08/17 07:30:54;;;;;;;12.13;6.47;;;24.10;99.90;;;;;;5072423;28;20474;-75
2022/08/17 07:33:23;;;;;;;5.80;5.07;;;24.10;99.90;;;;;;5071149;28;20534;-77
2022/08/17 07:35:50;;;;;;;4.70;4.20;;;24.10;99.90;;;;;;5073037;28;20483;-79
2022/08/17 07:38:21;;;;;;;6.00;4.00;;;24.10;99.90;;;;;;5073008;28;20455;-78
2022/08/17 07:41:01;;;;;;;4.67;3.83;;;24.00;99.90;;;;;;5072899;28;20502;-81
2022/08/17 07:43:30;;;;;;;5.50;4.00;;;24.10;99.90;;;;;;5072694;28;20557;-82
2022/08/17 07:48:53;;;;;;;4.27;3.37;;;24.30;99.90;;;;;;5072760;28;20877;-76
2022/08/17 07:51:25;;;;;;;5.20;4.23;;;24.40;99.90;;;;;;5068534;28;20569;-77
2022/08/17 07:53:53;;;;;;;5.60;4.20;;;24.50;99.90;;;;;;5058113;28;20436;-77
2022/08/17 07:56:36;;;;;;;5.23;3.60;;;24.60;99.90;;;;;;5071936;28;20691;-77
2022/08/17 07:59:10;;;;;;;6.63;4.70;;;24.50;99.90;;;;;;5075031;28;20878;-77
2022/08/17 08:01:37;;;;;;;6.43;4.07;;;24.70;99.90;;;;;;5078695;28;20479;-80
2022/08/17 08:04:26;;;;;;;9.73;3.50;;;24.80;99.90;;;;;;5076558;28;20443;-77
2022/08/17 08:06:55;;;;;;;5.00;3.50;;;24.90;99.90;;;;;;5075297;28;20443;-80
2022/08/17 08:09:35;;;;;;;5.17;3.60;;;24.80;99.90;;;;;;5064757;28;20493;-79
2022/08/17 08:12:28;;;;;;;5.10;3.77;;;24.90;99.90;;;;;;5075006;28;20546;-78
2022/08/17 08:14:58;;;;;;;5.53;3.57;;;25.00;99.90;;;;;;5075208;28;20532;-79
2022/08/17 08:17:30;;;;;;;5.60;4.47;;;25.00;99.90;;;;;;5076368;28;20593;-79
2022/08/17 08:19:59;;;;;;;7.70;4.00;;;25.10;99.90;;;;;;5077402;28;20446;-79
2022/08/17 08:22:34;;;;;;;7.63;4.37;;;25.20;99.90;;;;;;5077210;28;20439;-78
2022/08/17 08:25:14;;;;;;;7.80;4.10;;;25.30;99.90;;;;;;5075897;28;20427;-77
2022/08/17 08:27:52;;;;;;;4.90;3.97;;;25.40;99.90;;;;;;5071579;28;20451;-77
2022/08/17 08:30:21;;;;;;;6.93;4.60;;;25.50;99.90;;;;;;5061937;28;20480;-76
2022/08/17 08:33:04;;;;;;;6.97;5.43;;;25.50;99.90;;;;;;5055955;28;20544;-79
2022/08/17 08:35:33;;;;;;;7.27;4.70;;;25.60;99.90;;;;;;5057296;28;20976;-76
2022/08/17 08:38:09;;;;;;;7.10;5.30;;;25.60;99.90;;;;;;5054841;28;20881;-79
2022/08/17 08:40:47;;;;;;;8.80;5.13;;;25.70;99.90;;;;;;5067943;28;20549;-78
2022/08/17 08:43:26;;;;;;;8.87;5.50;;;25.90;99.90;;;;;;5071125;28;20514;-78
2022/08/17 08:46:01;;;;;;;6.00;5.40;;;25.70;99.90;;;;;;5071942;28;20973;-78
2022/08/17 08:48:54;;;;;;;9.03;5.00;;;25.70;99.90;;;;;;5067300;28;20837;-77
2022/08/17 08:51:27;;;;;;;7.07;4.70;;;25.70;99.90;;;;;;5064892;28;20502;-77
2022/08/17 08:54:02;;;;;;;8.40;5.17;;;25.80;99.90;;;;;;5079296;28;20530;-76
2022/08/17 08:56:36;;;;;;;8.03;5.10;;;25.80;99.90;;;;;;5080133;28;20476;-76
2022/08/17 08:59:12;;;;;;;9.50;5.50;;;25.90;99.90;;;;;;5079590;28;20478;-79
2022/08/17 09:01:49;;;;;;;6.83;5.50;;;25.70;99.90;;;;;;5061017;28;20474;-77
2022/08/17 09:04:30;;;;;;;8.23;5.30;;;25.80;99.90;;;;;;5074999;28;20455;-77
2022/08/17 09:07:10;;;;;;;7.50;5.47;;;25.90;99.90;;;;;;5080575;28;20477;-77
2022/08/17 09:09:46;;;;;;;6.97;5.57;;;25.90;99.90;;;;;;5082113;28;20431;-80
2022/08/17 09:12:36;;;;;;;7.60;5.80;;;26.00;99.90;;;;;;5082183;28;20512;-77
2022/08/17 09:15:13;;;;;;;11.30;5.00;;;26.00;99.90;;;;;;5080646;28;20940;-77
2022/08/17 09:17:47;;;;;;;7.20;5.37;;;26.00;99.90;;;;;;5081324;28;20919;-76
2022/08/17 09:20:20;;;;;;;7.13;5.73;;;26.10;99.90;;;;;;5081250;28;20891;-77
2022/08/17 09:22:53;;;;;;;6.93;6.13;;;26.10;99.90;;;;;;5080600;28;20450;-77
2022/08/17 09:25:25;;;;;;;8.93;5.60;;;26.00;99.90;;;;;;5079787;28;20438;-76
2022/08/17 09:27:57;;;;;;;7.37;5.77;;;26.00;99.90;;;;;;5079995;28;20973;-76
2022/08/17 09:30:28;;;;;;;13.17;6.63;;;25.90;99.90;;;;;;5080074;28;20528;-76
2022/08/17 09:32:58;;;;;;;8.30;5.40;;;25.70;99.90;;;;;;5079020;28;20447;-76
2022/08/17 09:35:29;;;;;;;8.23;5.90;;;25.60;99.90;;;;;;5058315;28;21022;-77
2022/08/17 09:38:03;;;;;;;12.00;6.23;;;25.60;99.90;;;;;;5078150;28;20533;-79
2022/08/17 09:40:35;;;;;;;7.33;5.57;;;25.60;99.90;;;;;;5078577;28;20481;-77
2022/08/17 09:43:10;;;;;;;8.83;6.10;;;25.50;99.90;;;;;;5078157;28;20538;-78
2022/08/17 09:45:48;;;;;;;7.73;6.20;;;25.50;99.90;;;;;;5075566;28;20419;-79
2022/08/17 09:48:18;;;;;;;6.93;5.30;;;25.50;99.90;;;;;;5075101;28;21016;-81
2022/08/17 09:50:52;;;;;;;6.67;5.97;;;25.40;99.90;;;;;;5074611;28;20481;-78
2022/08/17 09:53:19;;;;;;;10.40;6.17;;;25.40;99.90;;;;;;5074321;28;20493;-79
2022/08/17 09:56:03;;;;;;;7.60;5.83;;;25.40;99.90;;;;;;5071740;28;20479;-76
2022/08/17 09:58:42;;;;;;;9.03;5.83;;;25.30;99.90;;;;;;5060440;28;20547;-80
2022/08/17 10:01:23;;;;;;;10.00;5.77;;;25.30;99.90;;;;;;5080192;28;20546;-79
2022/08/17 10:04:25;;;;;;;9.47;6.67;;;25.40;99.90;;;;;;5079431;28;20435;-80
2022/08/17 10:07:01;;;;;;;8.13;6.17;;;25.40;99.90;;;;;;5079204;28;20484;-77
2022/08/17 10:09:43;;;;;;;6.60;5.70;;;25.40;99.90;;;;;;5074866;28;20466;-77
2022/08/17 10:12:22;;;;;;;6.93;6.17;;;25.30;99.90;;;;;;5060965;28;20504;-79
2022/08/17 10:15:03;;;;;;;9.40;6.33;;;25.30;99.90;;;;;;5062751;28;21248;-77
2022/08/17 10:17:39;;;;;;;9.63;6.27;;;25.30;99.90;;;;;;5072797;28;20454;-80
2022/08/17 10:20:12;;;;;;;8.20;5.77;;;25.30;99.90;;;;;;5080875;28;20900;-78
2022/08/17 10:28:17;;;;;;;7.80;7.00;;;25.30;99.90;;;;;;5095089;28;20414;-78
2022/08/17 10:30:50;;;;;;;9.03;7.47;;;25.30;99.90;;;;;;5079555;28;20467;-79
2022/08/17 10:33:22;;;;;;;12.07;6.87;;;25.30;99.90;;;;;;5078500;28;20437;-79
2022/08/17 10:35:55;;;;;;;11.70;8.00;;;25.20;99.90;;;;;;5078079;28;20549;-79
2022/08/17 10:38:35;;;;;;;10.43;8.30;;;25.10;99.90;;;;;;5076907;28;20518;-76
2022/08/17 10:41:13;;;;;;;13.90;7.37;;;25.00;99.90;;;;;;5079820;28;20481;-77
2022/08/17 10:43:52;;;;;;;8.67;6.73;;;25.00;99.90;;;;;;5079421;28;20474;-77
2022/08/17 10:46:24;;;;;;;8.23;7.37;;;25.00;99.90;;;;;;5080197;28;20449;-79
2022/08/17 10:49:28;;;;;;;10.37;8.03;;;24.80;99.90;;;;;;5080784;28;20443;-79
2022/08/17 10:51:58;;;;;;;11.63;8.57;;;24.70;99.90;;;;;;5074528;28;20521;-79
2022/08/17 10:54:46;;;;;;;11.70;7.87;;;24.70;99.90;;;;;;5078652;28;20459;-78
2022/08/17 10:57:42;;;;;;;9.27;7.90;;;24.70;99.90;;;;;;5080213;28;20486;-77
2022/08/17 11:00:30;;;;;;;11.07;8.87;;;24.60;99.90;;;;;;5058429;28;20526;-77
2022/08/17 11:02:58;;;;;;;9.57;8.57;;;24.50;99.90;;;;;;5079109;28;20443;-77
2022/08/17 11:05:45;;;;;;;10.53;9.00;;;24.50;99.90;;;;;;5079955;28;20477;-77
2022/08/17 11:08:57;;;;;;;10.47;8.70;;;24.40;99.90;;;;;;5080095;28;20529;-77
2022/08/17 11:11:46;;;;;;;12.90;9.77;;;24.40;99.90;;;;;;5075942;28;20903;-79
2022/08/17 11:14:37;;;;;;;10.27;9.20;;;24.40;99.90;;;;;;5073024;28;20469;-77
2022/08/17 11:17:25;;;;;;;10.50;9.50;;;24.40;99.90;;;;;;5057924;28;20464;-80
2022/08/17 11:20:21;;;;;;;11.57;9.73;;;24.40;99.90;;;;;;5069203;28;20447;-82
2022/08/17 11:23:19;;;;;;;12.77;11.40;;;24.40;99.90;;;;;;5075990;28;20541;-81
2022/08/17 11:25:52;;;;;;;13.43;11.33;;;24.30;99.90;;;;;;5076055;28;20447;-77
2022/08/17 11:28:23;;;;;;;12.37;10.67;;;24.30;99.90;;;;;;5063788;28;20551;-79
2022/08/17 11:30:53;;;;;;;13.07;11.03;;;24.30;99.90;;;;;;5066505;28;20471;-77
2022/08/17 11:33:52;;;;;;;13.10;11.80;;;24.30;99.90;;;;;;5075639;28;20476;-78
2022/08/17 11:36:33;;;;;;;16.93;12.57;;;24.30;99.90;;;;;;5071138;28;20510;-78
2022/08/17 11:39:14;;;;;;;14.07;11.13;;;24.20;99.90;;;;;;5076622;28;20481;-78
2022/08/17 11:41:53;;;;;;;13.53;11.10;;;24.10;99.90;;;;;;5058590;28;20472;-77
2022/08/17 11:44:42;;;;;;;16.20;14.63;;;24.20;99.90;;;;;;5058583;28;20446;-78
2022/08/17 11:53:01;;;;;;;17.37;15.57;;;24.40;99.90;;;;;;5074851;28;20438;-80
2022/08/17 11:56:03;;;;;;;18.70;16.40;;;24.30;99.90;;;;;;5075800;28;20454;-80
2022/08/17 11:58:41;;;;;;;20.17;17.77;;;24.30;99.90;;;;;;5074995;28;20454;-78
2022/08/17 12:01:10;;;;;;;18.97;17.20;;;24.30;99.90;;;;;;5075667;28;20498;-79
2022/08/17 12:03:55;;;;;;;18.00;13.80;;;24.30;99.90;;;;;;5074584;28;20546;-79
2022/08/17 12:06:34;;;;;;;19.00;16.97;;;24.30;99.90;;;;;;5075352;28;20538;-79
2022/08/17 12:09:07;;;;;;;14.93;13.53;;;24.30;99.90;;;;;;5074546;28;20529;-79
2022/08/17 12:11:45;;;;;;;16.07;14.27;;;24.40;99.90;;;;;;5073583;28;20902;-78
2022/08/17 12:14:19;;;;;;;16.80;14.50;;;24.50;99.90;;;;;;5073464;28;20867;-77
2022/08/17 12:16:59;;;;;;;19.67;15.17;;;24.40;99.90;;;;;;5075726;28;20982;-77
2022/08/17 12:19:28;;;;;;;17.90;16.20;;;24.50;99.90;;;;;;5076664;28;20999;-80
2022/08/17 12:21:59;;;;;;;18.60;16.87;;;24.50;99.90;;;;;;5077174;28;20471;-83
2022/08/17 12:24:56;;;;;;;21.00;18.03;;;24.40;99.90;;;;;;5078207;28;20523;-78
2022/08/17 12:27:27;;;;;;;21.03;18.93;;;24.60;99.90;;;;;;5080811;28;20989;-77
2022/08/17 12:29:55;;;;;;;19.33;17.13;;;24.80;99.90;;;;;;5076785;28;20446;-78
2022/08/17 12:32:26;;;;;;;23.00;20.70;;;25.00;99.90;;;;;;5073546;28;20529;-77
2022/08/17 12:34:53;;;;;;;22.10;19.73;;;25.30;99.90;;;;;;5075099;28;20430;-80
2022/08/17 12:37:26;;;;;;;21.47;18.63;;;25.50;99.90;;;;;;5074275;28;20601;-77
2022/08/17 12:40:01;;;;;;;30.03;24.77;;;25.60;99.90;;;;;;5074740;28;20443;-77
2022/08/17 12:42:30;;;;;;;25.03;22.43;;;25.50;99.90;;;;;;5075214;28;20463;-78
2022/08/17 12:44:59;;;;;;;23.57;21.10;;;25.50;99.90;;;;;;5072733;28;20594;-77
2022/08/17 12:47:28;;;;;;;26.40;23.60;;;25.60;99.90;;;;;;5074527;28;20533;-80
2022/08/17 12:50:07;;;;;;;22.33;20.13;;;25.70;99.90;;;;;;5077388;28;20451;-78
2022/08/17 12:52:38;;;;;;;22.10;20.00;;;25.80;99.90;;;;;;5076640;28;20997;-77
2022/08/17 12:55:07;;;;;;;23.27;21.07;;;26.00;99.90;;;;;;5073613;28;20526;-76
2022/08/17 12:57:41;;;;;;;31.13;28.07;;;26.00;99.90;;;;;;5078010;28;20487;-76
2022/08/17 13:00:16;;;;;;;26.77;24.07;;;25.80;99.90;;;;;;5080956;28;20418;-76
2022/08/17 13:02:47;;;;;;;21.97;19.97;;;25.90;99.90;;;;;;5078637;28;20439;-77
2022/08/17 13:05:27;;;;;;;27.33;23.40;;;26.00;99.90;;;;;;5077933;28;20493;-77
2022/08/17 13:07:56;;;;;;;30.63;27.40;;;26.70;99.90;;;;;;5079375;28;20461;-77
2022/08/17 13:10:26;;;;;;;31.97;28.93;;;27.20;99.90;;;;;;5078996;28;20998;-78
2022/08/17 13:12:53;;;;;;;31.30;28.30;;;27.70;99.90;;;;;;5078643;28;20451;-80
2022/08/17 13:15:28;;;;;;;30.40;26.70;;;27.90;99.90;;;;;;5078614;28;20477;-77
2022/08/17 13:17:58;;;;;;;26.77;24.27;;;28.30;99.90;;;;;;5078607;28;21074;-77
2022/08/17 13:20:25;;;;;;;23.80;21.73;;;28.90;99.90;;;;;;5075922;28;20475;-78
2022/08/17 13:22:57;;;;;;;23.33;20.67;;;29.20;99.90;;;;;;5073156;28;20447;-80
2022/08/17 13:25:26;;;;;;;30.87;27.83;;;29.40;99.90;;;;;;5076470;28;20465;-76
2022/08/17 13:27:55;;;;;;;30.13;27.23;;;29.60;99.90;;;;;;5078729;28;20439;-77
2022/08/17 13:30:28;;;;;;;30.50;27.60;;;29.80;99.90;;;;;;5073781;28;20561;-79
2022/08/17 13:32:59;;;;;;;27.23;24.40;;;29.90;99.90;;;;;;5078461;28;20489;-77
2022/08/17 13:35:41;;;;;;;34.10;30.70;;;29.90;99.90;;;;;;5079419;28;20443;-76
2022/08/17 13:38:12;;;;;;;32.57;29.33;;;29.80;99.90;;;;;;5080098;28;20500;-77